Flight Track Log - Related Links

Times and Time Zones

All times are in EDT time to prevent confusion due to time zone crossing. See the BBA13 flight status page for this flight to view local times or setup timezone preferences in your user account.


Time Position Orientation Groundspeed Altitude Reporting Facility
EDT Latitude Longitude Course Direction KTS MPH feet Rate Location/Type
Sun 09:27:11 AM 43.7540 -79.4780 322° Northwest 165 190 1,100  Level FlightAware ADS-B
Sun 09:27:26 AM 43.7640 -79.4880 324° Northwest 193 222 1,300 750 Climbing FlightAware ADS-B
Sun 09:27:51 AM 43.7830 -79.5080 323° Northwest 211 243 1,600 800 Climbing FlightAware ADS-B
Sun 09:28:11 AM 43.7980 -79.5240 322° Northwest 202 232 1,900 450 Climbing FlightAware ADS-B
Sun 09:28:31 AM 43.8130 -79.5390 324° Northwest 200 230 1,900 133 Level FlightAware ADS-B
Sun 09:28:56 AM 43.8330 -79.5570 327° Northwest 216 249 2,000 450 Climbing FlightAware ADS-B
Sun 09:29:11 AM 43.8490 -79.5620 347° North 251 289 2,200 2,341 Climbing FlightAware ADS-B
Sun 09:29:37 AM 43.8800 -79.5660 355° North 270 311 3,600 3,709 Climbing FlightAware ADS-B
Sun 09:30:06 AM 43.9170 -79.5710 354° North 278 320 5,600 3,955 Climbing FlightAware ADS-B
Sun 09:30:21 AM 43.9360 -79.5740 354° North 282 325 6,500 3,750 Climbing FlightAware ADS-B
Sun 09:30:46 AM 43.9690 -79.5790 354° North 286 329 8,100 3,686 Climbing FlightAware ADS-B
Sun 09:31:31 AM 44.0290 -79.5740 North 306 352 10,800 3,459 Climbing FlightAware ADS-B
Sun 09:32:11 AM 44.0850 -79.5480 18° North 312 359 13,000 2,824 Climbing FlightAware ADS-B
Sun 09:32:56 AM 44.1470 -79.5170 20° North 332 382 14,800 1,520 Climbing FlightAware ADS-B
Sun 09:33:26 AM 44.1910 -79.4960 19° North 328 377 14,900 91 Climbing FlightAware ADS-B
Sun 09:34:02 AM 44.2330 -79.4760 19° North 307 353 14,900  Level FlightAware ADS-B
Sun 09:34:37 AM 44.2820 -79.4550 17° North 272 313 14,900  Level FlightAware ADS-B
Sun 09:35:22 AM 44.3330 -79.4310 19° North 256 295 14,900  Level FlightAware ADS-B
Sun 09:36:02 AM 44.3760 -79.4100 19° North 255 293 14,900  Level FlightAware ADS-B
Sun 09:36:32 AM 44.4120 -79.3940 18° North 257 296 14,900  Level FlightAware ADS-B
Sun 09:37:12 AM 44.4570 -79.3730 18° North 259 298 14,900  Level FlightAware ADS-B
Sun 09:37:57 AM 44.5060 -79.3510 18° North 256 295 14,900  Level FlightAware ADS-B
Sun 09:38:38 AM 44.5510 -79.3310 18° North 254 292 14,900  Level FlightAware ADS-B
Sun 09:39:22 AM 44.6020 -79.3090 17° North 256 295 14,900  Level FlightAware ADS-B
Sun 09:40:02 AM 44.6490 -79.2880 18° North 255 293 14,900  Level FlightAware ADS-B
Sun 09:40:47 AM 44.6980 -79.2670 17° North 257 296 14,900  Level FlightAware ADS-B
Sun 09:41:12 AM 44.7290 -79.2530 18° North 257 296 14,900  Level FlightAware ADS-B
Sun 09:41:57 AM 44.7780 -79.2320 17° North 260 299 14,900  Level FlightAware ADS-B
Sun 09:42:32 AM 44.8210 -79.2140 17° North 259 298 14,900  Level FlightAware ADS-B
Sun 09:43:17 AM 44.8720 -79.1920 17° North 256 295 14,900  Level FlightAware ADS-B
Sun 09:43:47 AM 44.9050 -79.1790 16° North 255 293 14,900  Level FlightAware ADS-B
Sun 09:44:27 AM 44.9480 -79.1620 16° North 243 280 14,900  Level FlightAware ADS-B
Sun 09:45:12 AM 44.9990 -79.1410 16° North 245 282 14,900  Level FlightAware ADS-B
Sun 09:45:52 AM 45.0430 -79.1240 15° North 247 284 14,900  Level FlightAware ADS-B
Sun 09:46:27 AM 45.0820 -79.1090 15° North 248 285 14,900  Level FlightAware ADS-B
Sun 09:46:57 AM 45.1150 -79.0970 14° North 248 285 14,900  Level FlightAware ADS-B
Sun 09:47:37 AM 45.1550 -79.0820 15° North 250 288 14,900  Level FlightAware ADS-B
Sun 09:48:17 AM 45.2040 -79.0640 15° North 250 288 14,900  Level FlightAware ADS-B
Sun 09:49:02 AM 45.2550 -79.0460 14° North 251 289 14,900  Level FlightAware ADS-B
Sun 09:49:45 AM 45.3000 -79.0290 15° North 251 289 14,900  Level FlightAware ADS-B
Sun 09:50:17 AM 45.3350 -79.0160 15° North 251 289 14,900  Level FlightAware ADS-B
Sun 09:50:57 AM 45.3830 -78.9980 15° North 253 291 14,900  Level FlightAware ADS-B
Sun 09:51:39 AM 45.4300 -78.9800 15° North 253 291 14,900  Level FlightAware ADS-B
Sun 09:52:07 AM 45.4630 -78.9670 15° North 254 292 14,900  Level FlightAware ADS-B
Sun 09:52:57 AM 45.5190 -78.9450 15° North 252 290 14,900  Level FlightAware ADS-B
Sun 09:53:42 AM 45.5660 -78.9280 14° North 252 290 14,900  Level FlightAware ADS-B
Sun 09:54:17 AM 45.6120 -78.9100 15° North 255 293 14,900  Level FlightAware ADS-B
Sun 09:55:02 AM 45.6590 -78.8920 15° North 252 290 14,900  Level FlightAware ADS-B
Sun 09:55:42 AM 45.7090 -78.8730 15° North 263 303 14,900  Level FlightAware ADS-B
Sun 09:56:12 AM 45.7380 -78.8610 16° North 244 281 14,900  Level FlightAware ADS-B
Sun 09:57:02 AM 45.7890 -78.8400 16° North 211 243 14,900  Level FlightAware ADS-B
Sun 09:57:50 AM 45.8290 -78.8230 16° North 214 246 14,900  Level FlightAware ADS-B
Sun 09:58:26 AM 45.8580 -78.8110 16° North 214 246 14,900  Level FlightAware ADS-B
Sun 09:59:14 AM 45.8970 -78.7950 16° North 214 246 14,900  Level FlightAware ADS-B
Sun 10:00:03 AM 45.9560 -78.7690 17° North 221 254 14,900  Level FlightAware ADS-B
Sun 10:00:49 AM 45.9940 -78.7530 16° North 221 254 14,900 65 Level FlightAware ADS-B
Sun 10:01:35 AM 46.0833 -78.7000 16° North 280 322 15,000 57 Climbing Toronto Center
Sun 10:02:35 AM 46.1500 -78.6667 19° North 270 311 15,000  Level Toronto Center
Sun 10:03:35 AM 46.2167 -78.6500 10° North 230 265 15,000  Level Toronto Center
Sun 10:04:35 AM 46.2667 -78.6167 25° Northeast 210 242 15,000  Level Toronto Center
Sun 10:05:35 AM 46.3167 -78.6000 13° North 200 230 15,000  Level Toronto Center
Sun 10:06:35 AM 46.3667 -78.5667 25° Northeast 190 219 15,000  Level Toronto Center
Sun 10:07:35 AM 46.4167 -78.5500 13° North 180 207 15,000  Level Toronto Center
Sun 10:08:35 AM 46.4667 -78.5167 25° Northeast 200 230 15,000  Level Toronto Center
Sun 10:09:35 AM 46.5333 -78.4667 27° Northeast 250 288 15,000  Level Toronto Center
Sun 10:10:35 AM 46.5333 -78.3500 90° East 300 345 15,000  Level Toronto Center
Sun 10:11:35 AM 46.4667 -78.2833 145° Southeast 320 368 15,000  Level Toronto Center
Sun 10:12:35 AM 46.3500 -78.2500 169° South 400 460 15,000  Level Toronto Center
Sun 10:13:35 AM 46.2500 -78.2500 180° South 410 472 15,000  Level Toronto Center
Sun 10:14:35 AM 46.1667 -78.2333 172° South 330 380 15,000  Level Toronto Center
Sun 10:15:35 AM 46.0667 -78.2333 180° South 320 368 15,000  Level Toronto Center
Sun 10:16:35 AM 45.9833 -78.2167 172° South 320 368 15,000  Level Toronto Center
Sun 10:17:35 AM 45.9167 -78.2500 199° South 280 322 15,000  Level Toronto Center
Sun 10:18:35 AM 45.8500 -78.2833 199° South 260 299 15,000  Level Toronto Center
Sun 10:19:35 AM 45.7833 -78.3167 199° South 260 299 15,000  Level Toronto Center
Sun 10:20:35 AM 45.8167 -78.4167 296° West 240 276 15,000  Level Toronto Center
Sun 10:21:35 AM 45.8833 -78.4667 332° Northwest 260 299 15,000  Level Toronto Center
Sun 10:22:35 AM 45.9000 -78.5333 290° West 230 265 15,000  Level Toronto Center
Sun 10:23:35 AM 45.8333 -78.6000 215° Southwest 260 299 15,000  Level Toronto Center
Sun 10:24:35 AM 45.7833 -78.6833 229° Southwest 280 322 15,000  Level Toronto Center
Sun 10:25:35 AM 45.7167 -78.7500 215° Southwest 280 322 15,000  Level Toronto Center
Sun 10:26:35 AM 45.6833 -78.6500 115° Southeast 290 334 15,000 100 Level Toronto Center
Sun 10:27:35 AM 45.7167 -78.5500 64° Northeast 260 299 15,200 50 Climbing Toronto Center
Sun 10:28:35 AM 45.7500 -78.4833 54° Northeast 230 265 15,100 -100 Descending Toronto Center
Sun 10:29:35 AM 45.7667 -78.4167 70° East 210 242 15,000 -50 Descending Toronto Center
Sun 10:30:35 AM 45.8000 -78.3333 60° Northeast 220 253 15,000  Level Toronto Center
Sun 10:31:35 AM 45.8667 -78.2833 28° Northeast 270 311 15,000  Level Toronto Center
Sun 10:32:35 AM 45.9333 -78.2667 10° North 270 311 15,000  Level Toronto Center
Sun 10:33:35 AM 46.0167 -78.2333 16° North 270 311 15,000  Level Toronto Center
Sun 10:34:35 AM 46.0833 -78.2167 10° North 280 322 15,000  Level Toronto Center
Sun 10:35:35 AM 46.1500 -78.2167 360° North 270 311 15,000  Level Toronto Center
Sun 10:36:35 AM 46.2333 -78.1833 15° North 270 311 15,000  Level Toronto Center
Sun 10:37:35 AM 46.3000 -78.1667 10° North 270 311 15,000  Level Toronto Center
Sun 10:38:35 AM 46.3833 -78.1333 15° North 280 322 15,000  Level Toronto Center
Sun 10:39:35 AM 46.4500 -78.1000 19° North 280 322 15,000  Level Toronto Center
Sun 10:40:35 AM 46.5167 -78.1333 341° North 260 299 15,000  Level Toronto Center
Sun 10:41:35 AM 46.4833 -78.1833 226° Southwest 230 265 15,000  Level Toronto Center
Sun 10:42:35 AM 46.4167 -78.2333 207° Southwest 240 276 15,000 924 Level Toronto Center
Sun 10:48:32 AM 45.9560 -78.6020 207° Southwest 21,800 1,067 Climbing FlightAware ADS-B
Sun 10:49:03 AM 45.9130 -78.6330 207° Southwest 409 471 21,900 2,400 Climbing FlightAware ADS-B
Sun 10:49:47 AM 45.8290 -78.6950 207° Southwest 419 482 24,800 3,143 Climbing FlightAware ADS-B
Sun 10:50:27 AM 45.7590 -78.7460 207° Southwest 428 493 26,300 2,100 Climbing FlightAware ADS-B
Sun 10:51:07 AM 45.6860 -78.7970 206° Southwest 438 504 27,600 1,875 Climbing FlightAware ADS-B
Sun 10:51:47 AM 45.6130 -78.8500 207° Southwest 447 514 28,800 1,694 Climbing FlightAware ADS-B
Sun 10:52:32 AM 45.5330 -78.9090 207° Southwest 458 527 30,000 1,257 Climbing FlightAware ADS-B
Sun 10:53:32 AM 45.4070 -78.9260 185° South 496 571 31,000 632 Climbing FlightAware ADS-B
Sun 10:54:07 AM 45.3360 -78.8650 149° Southeast 496 571 31,000  Level FlightAware ADS-B
Sun 10:55:02 AM 45.2350 -78.7650 145° Southeast 510 587 31,000  Level FlightAware ADS-B
Sun 10:55:22 AM 45.2110 -78.6980 117° Southeast 535 616 31,000  Level FlightAware ADS-B
Sun 10:56:02 AM 45.2210 -78.5600 84° East 536 617 31,000  Level FlightAware ADS-B
Sun 10:56:32 AM 45.2670 -78.4860 49° Northeast 531 611 31,000  Level FlightAware ADS-B
Sun 10:56:47 AM 45.2960 -78.4640 28° Northeast 524 603 31,000  Level FlightAware ADS-B
Sun 10:57:27 AM 45.3920 -78.4340 12° North 515 593 31,000  Level FlightAware ADS-B
Sun 10:58:07 AM 45.4890 -78.4070 11° North 512 589 31,000  Level FlightAware ADS-B
Sun 10:58:52 AM 45.5890 -78.3790 11° North 513 590 31,000  Level FlightAware ADS-B
Sun 10:59:32 AM 45.6860 -78.3520 11° North 514 592 31,000  Level FlightAware ADS-B
Sun 11:00:32 AM 45.8260 -78.3140 11° North 515 593 31,000  Level FlightAware ADS-B
Sun 11:01:12 AM 45.9160 -78.2900 11° North 514 592 31,000  Level FlightAware ADS-B
Sun 11:02:18 AM 46.0600 -78.2500 11° North 515 593 31,000  Level FlightAware ADS-B
Sun 11:02:57 AM 46.1640 -78.2210 11° North 512 589 31,000  Level FlightAware ADS-B
Sun 11:03:32 AM 46.2400 -78.2000 11° North 509 586 31,000  Level FlightAware ADS-B
Sun 11:04:11 AM 46.3160 -78.1780 11° North 509 586 31,000  Level FlightAware ADS-B
Sun 11:05:22 AM 46.4780 -78.2180 350° North 451 519 31,000  Level FlightAware ADS-B
Sun 11:06:32 AM 46.4650 -78.4060 264° West 456 525 31,000 159 Level FlightAware ADS-B
Sun 11:07:15 AM 46.4030 -78.4900 223° Southwest 468 539 31,300 1,120 Climbing FlightAware ADS-B
Sun 11:07:47 AM 46.3260 -78.5170 194° South 490 564 32,400 1,810 Climbing FlightAware ADS-B
Sun 11:08:18 AM 46.2670 -78.5270 187° South 496 571 33,200 2,560 Climbing FlightAware ADS-B
Sun 11:09:02 AM 46.1570 -78.5450 186° South 484 557 35,600 2,000 Climbing FlightAware ADS-B
Sun 11:09:42 AM 46.0660 -78.5590 186° South 482 555 36,000 300 Climbing FlightAware ADS-B
Sun 11:10:22 AM 45.9870 -78.5710 186° South 476 548 36,000  Level FlightAware ADS-B
Sun 11:11:02 AM 45.8940 -78.5850 186° South 487 560 36,000  Level FlightAware ADS-B
Sun 11:11:47 AM 45.7900 -78.6010 186° South 486 559 36,000  Level FlightAware ADS-B
Sun 11:12:32 AM 45.6890 -78.6180 187° South 484 557 36,000  Level FlightAware ADS-B
Sun 11:13:12 AM 45.6090 -78.6320 187° South 485 558 36,000  Level FlightAware ADS-B
Sun 11:13:47 AM 45.5240 -78.6470 187° South 486 559 36,000  Level FlightAware ADS-B
Sun 11:14:12 AM 45.4710 -78.6560 187° South 488 562 36,000  Level FlightAware ADS-B
Sun 11:14:52 AM 45.3750 -78.6740 188° South 491 565 36,000  Level FlightAware ADS-B
Sun 11:15:37 AM 45.2760 -78.6920 187° South 488 562 36,000  Level FlightAware ADS-B
Sun 11:16:22 AM 45.1750 -78.7120 188° South 489 563 36,000  Level FlightAware ADS-B
Sun 11:17:02 AM 45.0910 -78.7350 191° South 487 560 36,000  Level FlightAware ADS-B
Sun 11:17:47 AM 44.9910 -78.7790 197° South 486 559 36,000  Level FlightAware ADS-B
Sun 11:18:22 AM 44.9180 -78.8200 202° Southwest 484 557 36,000  Level FlightAware ADS-B
Sun 11:18:52 AM 44.8760 -78.8920 231° Southwest 476 548 36,000  Level FlightAware ADS-B
Sun 11:19:02 AM 44.8700 -78.9210 254° West 468 539 36,000  Level FlightAware ADS-B
Sun 11:19:12 AM 44.8680 -78.9510 265° West 462 532 36,000  Level FlightAware ADS-B
Sun 11:19:42 AM 44.8910 -79.0340 291° West 460 529 36,000  Level FlightAware ADS-B
Sun 11:20:20 AM 44.9570 -79.0850 331° Northwest 479 551 36,000  Level FlightAware ADS-B
Sun 11:20:57 AM 45.0410 -79.0610 11° North 492 566 36,000  Level FlightAware ADS-B
Sun 11:21:37 AM 45.1250 -79.0180 20° North 494 568 36,000  Level FlightAware ADS-B
Sun 11:22:22 AM 45.2200 -78.9700 20° North 494 568 36,000  Level FlightAware ADS-B
Sun 11:23:02 AM 45.3080 -78.9240 20° North 487 560 36,000  Level FlightAware ADS-B
Sun 11:23:42 AM 45.3910 -78.8800 20° North 485 558 36,000  Level FlightAware ADS-B
Sun 11:24:12 AM 45.4570 -78.8450 20° North 487 560 36,000  Level FlightAware ADS-B
Sun 11:24:57 AM 45.5520 -78.7950 20° North 493 567 36,000  Level FlightAware ADS-B
Sun 11:25:32 AM 45.6280 -78.7540 21° North 497 572 36,000  Level FlightAware ADS-B
Sun 11:26:23 AM 45.7360 -78.6970 20° North 498 573 36,000  Level FlightAware ADS-B
Sun 11:26:57 AM 45.8100 -78.6570 21° North 498 573 36,000  Level FlightAware ADS-B
Sun 11:27:37 AM 45.8950 -78.6110 21° North 501 577 36,000  Level FlightAware ADS-B
Sun 11:28:12 AM 45.9720 -78.5690 21° North 500 575 36,000 141 Level FlightAware ADS-B
Sun 11:29:02 AM 46.0790 -78.5100 21° North 495 570 36,200 1,333 Climbing FlightAware ADS-B
Sun 11:29:42 AM 46.1650 -78.4630 21° North 487 560 38,000 2,550 Climbing FlightAware ADS-B
Sun 11:30:22 AM 46.2430 -78.4190 21° North 481 554 39,600 2,118 Climbing FlightAware ADS-B
Sun 11:31:07 AM 46.3350 -78.3670 21° North 459 528 41,000 840 Climbing FlightAware ADS-B
Sun 11:32:02 AM 46.4470 -78.3020 22° Northeast 459 528 41,000  Level FlightAware ADS-B
Sun 11:32:42 AM 46.5250 -78.2550 23° Northeast 460 529 41,000  Level FlightAware ADS-B
Sun 11:33:37 AM 46.6300 -78.1930 22° Northeast 458 527 41,000 -52 Level FlightAware ADS-B
Sun 11:34:37 AM 46.7350 -78.1980 358° North 401 461 40,900  Descending FlightAware ADS-B
Sun 11:34:47 AM 46.7400 -78.2310 282° West 395 455 41,000 150 Climbing FlightAware ADS-B
Sun 11:35:17 AM 46.7070 -78.2950 233° Southwest 430 495 41,000  Level FlightAware ADS-B
Sun 11:35:32 AM 46.6780 -78.3150 205° Southwest 449 517 41,000  Level FlightAware ADS-B
Sun 11:36:12 AM 46.5930 -78.3500 196° South 477 549 41,000  Level FlightAware ADS-B
Sun 11:36:53 AM 46.5140 -78.3830 196° South 474 545 41,000  Level FlightAware ADS-B
Sun 11:37:27 AM 46.4350 -78.4160 196° South 480 552 41,000  Level FlightAware ADS-B
Sun 11:38:02 AM 46.3590 -78.4480 196° South 480 552 41,000  Level FlightAware ADS-B
Sun 11:38:42 AM 46.2760 -78.4840 197° South 481 554 41,000  Level FlightAware ADS-B
Sun 11:39:37 AM 46.1610 -78.5350 197° South 471 542 41,000  Level FlightAware ADS-B
Sun 11:40:17 AM 46.0760 -78.5730 197° South 471 542 41,000  Level FlightAware ADS-B
Sun 11:41:02 AM 45.9850 -78.6130 197° South 469 540 41,000  Level FlightAware ADS-B
Sun 11:41:27 AM 45.9360 -78.6340 197° South 469 540 41,000  Level FlightAware ADS-B
Sun 11:42:12 AM 45.8380 -78.6770 197° South 469 540 41,000  Level FlightAware ADS-B
Sun 11:42:47 AM 45.7670 -78.7090 197° South 469 540 41,000  Level FlightAware ADS-B
Sun 11:43:28 AM 45.6830 -78.7480 198° South 468 539 41,000  Level FlightAware ADS-B
Sun 11:44:07 AM 45.6000 -78.7860 198° South 466 536 41,000  Level FlightAware ADS-B
Sun 11:44:42 AM 45.5290 -78.8200 199° South 467 537 41,000  Level FlightAware ADS-B
Sun 11:45:22 AM 45.4540 -78.8540 198° South 467 537 41,000  Level FlightAware ADS-B
Sun 11:46:24 AM 45.3530 -78.9010 198° South 468 539 41,000  Level FlightAware ADS-B
Sun 11:46:52 AM 45.2660 -78.9420 198° South 476 548 41,000  Level FlightAware ADS-B
Sun 11:47:32 AM 45.1760 -78.9860 199° South 487 560 41,000  Level FlightAware ADS-B
Sun 11:48:27 AM 45.0700 -79.0390 199° South 479 551 41,000 71 Level FlightAware ADS-B
Sun 11:48:57 AM 44.9970 -79.0700 197° South 491 565 41,100 400 Climbing FlightAware ADS-B
Sun 11:49:27 AM 44.9350 -79.0520 168° South 499 574 41,400 750 Climbing FlightAware ADS-B
Sun 11:49:37 AM 44.9120 -79.0300 146° Southeast 505 581 41,600 1,200 Climbing FlightAware ADS-B
Sun 11:49:52 AM 44.8890 -78.9960 134° Southeast 507 583 41,900 1,200 Climbing FlightAware ADS-B
Sun 11:50:07 AM 44.8720 -78.9470 116° Southeast 509 586 42,200 1,200 Climbing FlightAware ADS-B
Sun 11:50:22 AM 44.8670 -78.9010 99° East 508 585 42,500 1,091 Climbing FlightAware ADS-B
Sun 11:51:02 AM 44.8980 -78.7790 70° East 499 574 43,200 982 Climbing FlightAware ADS-B
Sun 11:51:17 AM 44.9230 -78.7480 41° Northeast 492 566 43,400 873 Climbing FlightAware ADS-B
Sun 11:51:57 AM 45.0000 -78.6870 29° Northeast 489 563 44,000 900 Climbing FlightAware ADS-B
Sun 11:52:37 AM 45.0790 -78.6270 28° Northeast 488 562 44,600 918 Climbing FlightAware ADS-B
Sun 11:53:22 AM 45.1710 -78.5590 28° Northeast 491 565 45,300 800 Climbing FlightAware ADS-B
Sun 11:54:07 AM 45.2540 -78.4960 28° Northeast 493 567 45,800 686 Climbing FlightAware ADS-B
Sun 11:54:32 AM 45.3080 -78.4560 28° Northeast 491 565 46,100 923 Climbing FlightAware ADS-B
Sun 11:55:12 AM 45.3950 -78.4110 20° North 478 550 46,800 635 Climbing FlightAware ADS-B
Sun 11:55:57 AM 45.4870 -78.3690 18° North 464 534 47,000 141 Climbing FlightAware ADS-B
Sun 11:56:37 AM 45.5690 -78.3320 18° North 439 505 47,000  Level FlightAware ADS-B
Sun 11:57:22 AM 45.6520 -78.2930 18° North 438 504 47,000  Level FlightAware ADS-B
Sun 11:58:02 AM 45.7330 -78.2550 18° North 443 510 47,000  Level FlightAware ADS-B
Sun 11:58:37 AM 45.8020 -78.2220 18° North 443 510 47,000  Level FlightAware ADS-B
Sun 11:59:22 AM 45.8880 -78.1810 18° North 443 510 47,000  Level FlightAware ADS-B
Sun 12:00:02 PM 45.9620 -78.1460 18° North 442 509 47,000  Level FlightAware ADS-B
Sun 12:00:48 PM 46.0420 -78.1070 19° North 454 522 47,000  Level FlightAware ADS-B
Sun 12:01:32 PM 46.1400 -78.0600 18° North 463 533 47,000  Level FlightAware ADS-B
Sun 12:02:08 PM 46.2190 -78.0220 18° North 475 547 47,000  Level FlightAware ADS-B
Sun 12:02:52 PM 46.3100 -77.9790 18° North 474 545 47,000  Level FlightAware ADS-B
Sun 12:03:47 PM 46.4260 -77.9310 16° North 461 531 47,000  Level FlightAware ADS-B
Sun 12:04:12 PM 46.4700 -77.9440 348° North 448 516 47,000  Level FlightAware ADS-B
Sun 12:04:27 PM 46.5000 -77.9760 324° Northwest 434 499 47,000  Level FlightAware ADS-B
Sun 12:04:42 PM 46.5140 -78.0080 302° West 419 482 47,000  Level FlightAware ADS-B
Sun 12:05:42 PM 46.4840 -78.1600 254° West 441 507 47,000  Level FlightAware ADS-B
Sun 12:06:02 PM 46.4480 -78.1860 206° Southwest 456 525 47,000  Level FlightAware ADS-B
Sun 12:06:52 PM 46.3440 -78.2420 200° South 457 526 47,000  Level FlightAware ADS-B
Sun 12:07:17 PM 46.2940 -78.2680 200° South 456 525 47,000  Level FlightAware ADS-B
Sun 12:08:02 PM 46.2090 -78.3140 201° Southwest 453 521 47,000  Level FlightAware ADS-B
Sun 12:08:42 PM 46.1270 -78.3580 200° South 452 520 47,000  Level FlightAware ADS-B
Sun 12:09:12 PM 46.0720 -78.3880 201° Southwest 451 519 47,000  Level FlightAware ADS-B
Sun 12:09:52 PM 45.9910 -78.4320 201° Southwest 445 512 47,000  Level FlightAware ADS-B
Sun 12:10:34 PM 45.9170 -78.4720 201° Southwest 447 514 47,000  Level FlightAware ADS-B
Sun 12:11:57 PM 45.7490 -78.5640 201° Southwest 454 522 47,000  Level FlightAware ADS-B
Sun 12:12:42 PM 45.6600 -78.6130 201° Southwest 459 528 47,000  Level FlightAware ADS-B
Sun 12:13:22 PM 45.5810 -78.6570 201° Southwest 462 532 47,000  Level FlightAware ADS-B
Sun 12:13:52 PM 45.5250 -78.6890 202° Southwest 462 532 47,000  Level FlightAware ADS-B
Sun 12:14:32 PM 45.4430 -78.7360 202° Southwest 458 527 47,000  Level FlightAware ADS-B
Sun 12:15:22 PM 45.3480 -78.7910 202° Southwest 465 535 47,000  Level FlightAware ADS-B
Sun 12:16:02 PM 45.2640 -78.8400 202° Southwest 470 541 47,000  Level FlightAware ADS-B
Sun 12:16:37 PM 45.1940 -78.8810 202° Southwest 472 543 47,000  Level FlightAware ADS-B
Sun 12:17:22 PM 45.1060 -78.9270 200° South 478 550 47,000  Level FlightAware ADS-B
Sun 12:18:02 PM 45.0230 -78.8990 167° South 495 570 47,000  Level FlightAware ADS-B
Sun 12:18:17 PM 44.9930 -78.8560 135° Southeast 500 575 47,000  Level FlightAware ADS-B
Sun 12:18:27 PM 44.9820 -78.8270 118° Southeast 500 575 47,000  Level FlightAware ADS-B
Sun 12:18:37 PM 44.9750 -78.7970 108° East 500 575 47,000  Level FlightAware ADS-B
Sun 12:18:52 PM 44.9710 -78.7480 97° East 497 572 47,000  Level FlightAware ADS-B
Sun 12:19:07 PM 44.9770 -78.7020 80° East 489 563 47,000  Level FlightAware ADS-B
Sun 12:19:32 PM 45.0020 -78.6420 59° Northeast 472 543 47,000  Level FlightAware ADS-B
Sun 12:19:47 PM 45.0260 -78.6150 38° Northeast 461 531 47,000  Level FlightAware ADS-B
Sun 12:20:32 PM 45.1220 -78.5680 19° North 456 525 47,000  Level FlightAware ADS-B
Sun 12:21:07 PM 45.1870 -78.5400 17° North 458 527 47,000  Level FlightAware ADS-B
Sun 12:21:52 PM 45.2850 -78.4970 17° North 458 527 47,000  Level FlightAware ADS-B
Sun 12:22:37 PM 45.3750 -78.4580 17° North 455 524 47,000  Level FlightAware ADS-B
Sun 12:23:19 PM 45.4540 -78.4240 17° North 453 521 47,000  Level FlightAware ADS-B
Sun 12:24:02 PM 45.5430 -78.3850 17° North 456 525 47,000 -795 Level FlightAware ADS-B
Sun 12:24:42 PM 45.6250 -78.3500 17° North 486 559 45,900 -2,025 Descending FlightAware ADS-B
Sun 12:25:22 PM 45.7120 -78.3120 17° North 487 560 44,300 -1,624 Descending FlightAware ADS-B
Sun 12:26:07 PM 45.8080 -78.2720 16° North 451 519 43,600 -3,279 Descending FlightAware ADS-B
Sun 12:26:48 PM 45.8850 -78.2380 17° North 450 518 39,600 -4,588 Descending FlightAware ADS-B
Sun 12:27:32 PM 45.9800 -78.2050 14° North 470 541 37,100 -1,975 Descending FlightAware ADS-B
Sun 12:28:07 PM 46.0440 -78.2270 347° North 450 518 37,000 -75 Descending FlightAware ADS-B
Sun 12:28:52 PM 46.1380 -78.2670 344° North 446 513 37,000  Level FlightAware ADS-B
Sun 12:29:37 PM 46.2250 -78.3080 342° North 437 503 37,000 -300 Level FlightAware ADS-B
Sun 12:29:52 PM 46.2500 -78.3400 318° Northwest 434 499 36,700 -1,440 Descending FlightAware ADS-B
Sun 12:30:02 PM 46.2600 -78.3610 305° West 431 496 36,400 -3,086 Descending FlightAware ADS-B
Sun 12:30:27 PM 46.2710 -78.4280 283° West 436 502 34,900 -4,800 Descending FlightAware ADS-B
Sun 12:30:57 PM 46.2490 -78.5180 251° West 475 547 32,000 -4,145 Descending FlightAware ADS-B
Sun 12:31:22 PM 46.2080 -78.5610 216° Southwest 498 573 31,100 -923 Descending FlightAware ADS-B
Sun 12:32:02 PM 46.1160 -78.6140 202° Southwest 516 594 31,000 -75 Descending FlightAware ADS-B
Sun 12:32:42 PM 46.0250 -78.6650 201° Southwest 522 601 31,000  Level FlightAware ADS-B
Sun 12:33:27 PM 45.9260 -78.7210 201° Southwest 522 601 31,000  Level FlightAware ADS-B
Sun 12:34:32 PM 45.7850 -78.8020 202° Southwest 523 602 31,000  Level FlightAware ADS-B
Sun 12:35:12 PM 45.6920 -78.8560 202° Southwest 511 588 31,000 -1,029 Level FlightAware ADS-B
Sun 12:35:42 PM 45.6250 -78.8860 197° South 485 558 29,800 -3,833 Descending FlightAware ADS-B
Sun 12:36:24 PM 45.5470 -78.8610 167° South 512 589 26,400 -5,018 Descending FlightAware ADS-B
Sun 12:36:37 PM 45.5180 -78.8260 140° Southeast 514 592 25,200 -2,717 Descending FlightAware ADS-B
Sun 12:37:17 PM 45.4630 -78.7170 126° Southeast 472 543 24,000 -900 Descending FlightAware ADS-B
Sun 12:37:57 PM 45.4170 -78.6200 124° Southeast 458 527 24,000 -225 Level FlightAware ADS-B
Sun 12:38:37 PM 45.3690 -78.5200 124° Southeast 449 517 23,700 -1,200 Descending FlightAware ADS-B
Sun 12:38:57 PM 45.3390 -78.4720 132° Southeast 432 497 22,800 -3,000 Descending FlightAware ADS-B
Sun 12:39:37 PM 45.2740 -78.4100 146° Southeast 416 479 20,700 -2,100 Descending FlightAware ADS-B
Sun 12:40:17 PM 45.2100 -78.3490 146° Southeast 426 490 20,000 -494 Descending FlightAware ADS-B
Sun 12:41:02 PM 45.1370 -78.2800 146° Southeast 430 495 20,000  Level FlightAware ADS-B
Sun 12:41:47 PM 45.0640 -78.2100 146° Southeast 429 494 20,000  Level FlightAware ADS-B
Sun 12:42:27 PM 44.9960 -78.1460 146° Southeast 430 495 20,000  Level FlightAware ADS-B
Sun 12:43:12 PM 44.9210 -78.0760 147° Southeast 431 496 20,000  Level FlightAware ADS-B
Sun 12:43:47 PM 44.8630 -78.0220 147° Southeast 427 491 20,000 -600 Level FlightAware ADS-B
Sun 12:44:32 PM 44.7900 -77.9530 146° Southeast 417 480 19,200 -2,063 Descending FlightAware ADS-B
Sun 12:45:23 PM 44.7100 -77.8790 147° Southeast 405 466 16,700 -2,968 Descending FlightAware ADS-B
Sun 12:46:07 PM 44.6410 -77.8150 147° Southeast 396 456 14,500 -2,127 Descending FlightAware ADS-B
Sun 12:46:42 PM 44.5920 -77.7640 143° Southeast 350 403 13,900 -1,725 Descending FlightAware ADS-B
Sun 12:47:27 PM 44.5550 -77.6850 123° Southeast 329 379 12,200 -2,455 Descending FlightAware ADS-B
Sun 12:48:10 PM 44.5220 -77.6120 122° Southeast 328 377 10,300 -2,677 Descending FlightAware ADS-B
Sun 12:48:32 PM 44.5030 -77.5690 122° Southeast 319 367 9,300 -811 Descending FlightAware ADS-B
Sun 12:49:24 PM 44.4730 -77.4880 117° Southeast 319 367 9,300  Level FlightAware ADS-B
Sun 12:50:04 PM 44.4490 -77.4260 118° Southeast 319 367 9,300  Level FlightAware ADS-B
Sun 12:50:29 PM 44.4340 -77.3870 118° Southeast 319 367 9,300  Level FlightAware ADS-B
Sun 12:58:00 PM 44.0422 -78.5844 246° West  Level Estimated
Sun 12:59:00 PM 43.9892 -78.7425 245° Southwest  Level Estimated
Sun 01:00:00 PM 43.9359 -78.9004 245° Southwest  Level Estimated
Sun 01:01:00 PM 43.8824 -79.0579 245° Southwest  Level Estimated
Sun 01:02:00 PM 43.8287 -79.2151 245° Southwest  Level Estimated
Sun 01:03:00 PM 43.7747 -79.3721 245° Southwest  Level Estimated
Sun 01:04:00 PM 43.7425 -79.4656 244° Southwest  Level Estimated
Sun 01:05:00 PM 43.7425 -79.4656 90° East  Level Estimated
Sun 01:06:00 PM 43.7425 -79.4656 90° East  Level Estimated
Sun 01:07:00 PM 43.7425 -79.4656 90° East  Level Estimated
Sun 01:08:00 PM 43.7425 -79.4656 90° East  Level Estimated
Sun 01:09:00 PM 43.7425 -79.4656 90° East  Level Estimated
Sun 01:10:00 PM 43.7425 -79.4656 90° East  Level Estimated
Sun 01:11:00 PM 43.7425 -79.4656 90° East  Level Estimated
Sun 01:12:00 PM 43.7425 -79.4656 90° East  Level Estimated
Sun 01:13:00 PM 43.7425 -79.4656 90° East  Level Estimated
Sun 01:14:00 PM 43.7425 -79.4656 90° East  Level Estimated
Sun 01:15:00 PM 43.7425 -79.4656 90° East  Level Estimated
Sun 01:16:00 PM 43.7425 -79.4656 90° East  Level Estimated
Sun 01:17:00 PM 43.7425 -79.4656 90° East  Level Estimated
Sun 01:18:00 PM 43.7425 -79.4656 90° East  Level Estimated
Sun 01:19:00 PM 43.7425 -79.4656 90° East  Level Estimated
Sun 01:20:00 PM 43.7425 -79.4656 90° East  Level Estimated
Sun 01:21:00 PM 43.7425 -79.4656 90° East  Level Estimated

Login

Don't have an account? Register now (free) for customized features, flight alerts, and more!